Estación de San Nicolás
Ultimos registro cada 15 minutos 54
| N° | Estación | Fecha / Hora | Temperatura | Humedad | Lluvia | Velocidad | Dirección | Radiación | Presion |
| 54 | San Nicolás | 06-05-2026 13:15 | 16,1 | 83 | 0 | 3,1 | 290 | 118 | 1012,7 |
| 53 | San Nicolás | 06-05-2026 13:00 | 15,7 | 86 | 0 | 3,1 | 316 | 765 | 1012,6 |
| 52 | San Nicolás | 06-05-2026 12:45 | 15,3 | 89 | 0 | 2,7 | 288 | 624 | 1012,2 |
| 51 | San Nicolás | 06-05-2026 12:30 | 14,7 | 90 | 0 | 1,8 | 265 | 330 | 1011,9 |
| 50 | San Nicolás | 06-05-2026 12:15 | 14,4 | 93 | 0 | 4,5 | 285 | 443 | 1011,5 |
| 49 | San Nicolás | 06-05-2026 12:00 | 13,9 | 95 | 0 | 0,9 | 317 | 306 | 1011,3 |
| 48 | San Nicolás | 06-05-2026 11:45 | 13,9 | 95 | 0 | 4,9 | 327 | 153 | 1011,2 |
| 47 | San Nicolás | 06-05-2026 11:30 | 14,3 | 95 | 0 | 1,8 | 279 | 42 | 1010,9 |
| 46 | San Nicolás | 06-05-2026 11:15 | 14,4 | 96 | 1 | 2,7 | 29 | 54 | 1009,9 |
| 45 | San Nicolás | 06-05-2026 11:00 | 14,1 | 95 | 0,5 | 2,2 | 352 | 44 | 1009,5 |
| 44 | San Nicolás | 06-05-2026 10:45 | 14,1 | 95 | 0 | 4 | 45 | 35 | 1009,2 |
| 43 | San Nicolás | 06-05-2026 10:30 | 13,9 | 95 | 0 | 3,6 | 61 | 49 | 1008,9 |
| 42 | San Nicolás | 06-05-2026 10:15 | 13,8 | 94 | 0,3 | 4,5 | 49 | 58 | 1008,8 |
| 41 | San Nicolás | 06-05-2026 10:00 | 13,8 | 94 | 0,3 | 6,3 | 49 | 21 | 1008,6 |
| 40 | San Nicolás | 06-05-2026 09:45 | 13,8 | 94 | 0 | 5,8 | 22 | 40 | 1008,5 |
| 39 | San Nicolás | 06-05-2026 09:30 | 13,7 | 94 | 0 | 6,3 | 63 | 70 | 1008,3 |
| 38 | San Nicolás | 06-05-2026 09:15 | 13,6 | 95 | 0,3 | 5,8 | 53 | 21 | 1008,1 |
| 37 | San Nicolás | 06-05-2026 09:00 | 13,5 | 95 | 0,3 | 5,8 | 59 | 0 | 1008,3 |
| 36 | San Nicolás | 06-05-2026 08:45 | 13,4 | 95 | 0,3 | 7,6 | 66 | 0 | 1008,2 |
| 35 | San Nicolás | 06-05-2026 08:30 | 13,4 | 95 | 0,8 | 7,6 | 65 | 0 | 1007,8 |
| 34 | San Nicolás | 06-05-2026 08:15 | 13,6 | 95 | 0,8 | 5,4 | 71 | 0 | 1008,3 |
| 33 | San Nicolás | 06-05-2026 08:00 | 13,6 | 95 | 0,8 | 5,4 | 65 | 0 | 1008,2 |
| 32 | San Nicolás | 06-05-2026 07:45 | 13,6 | 95 | 0,8 | 3,1 | 74 | 0 | 1008,2 |
| 31 | San Nicolás | 06-05-2026 07:30 | 13,5 | 95 | 0 | 5,8 | 65 | 0 | 1008,3 |
| 30 | San Nicolás | 06-05-2026 07:15 | 13,5 | 95 | 0 | 4 | 56 | 0 | 1008,3 |
| 29 | San Nicolás | 06-05-2026 07:00 | 13,4 | 95 | 0,5 | 4,5 | 58 | 0 | 1007,9 |
| 28 | San Nicolás | 06-05-2026 06:45 | 13,4 | 95 | 0,3 | 4,5 | 31 | 0 | 1007,6 |
| 27 | San Nicolás | 06-05-2026 06:30 | 13,4 | 95 | 0,5 | 4,5 | 63 | 0 | 1008,1 |
| 26 | San Nicolás | 06-05-2026 06:15 | 13,4 | 95 | 0,5 | 3,6 | 51 | 0 | 1008,2 |
| 25 | San Nicolás | 06-05-2026 06:00 | 13,4 | 95 | 2,8 | 4,5 | 49 | 0 | 1008,1 |
| 24 | San Nicolás | 06-05-2026 05:45 | 13,4 | 95 | 0 | 3,1 | 34 | 0 | 1008,1 |
| 23 | San Nicolás | 06-05-2026 05:30 | 13,5 | 94 | 0 | 2,7 | 57 | 0 | 1007,9 |
| 22 | San Nicolás | 06-05-2026 05:15 | 13,5 | 95 | 0,5 | 5,8 | 31 | 0 | 1007,7 |
| 21 | San Nicolás | 06-05-2026 05:00 | 13,5 | 94 | 0 | 4,5 | 76 | 0 | 1007,6 |
| 20 | San Nicolás | 06-05-2026 04:45 | 13,6 | 94 | 0 | 4,5 | 28 | 0 | 1007,8 |
| 19 | San Nicolás | 06-05-2026 04:30 | 13,6 | 94 | 0 | 4 | 51 | 0 | 1007,8 |
| 18 | San Nicolás | 06-05-2026 04:15 | 13,5 | 94 | 0 | 4,9 | 44 | 0 | 1008 |
| 17 | San Nicolás | 06-05-2026 04:00 | 13,6 | 94 | 0 | 4 | 59 | 0 | 1008,4 |
| 16 | San Nicolás | 06-05-2026 03:45 | 13,6 | 94 | 0,3 | 3,6 | 23 | 0 | 1008,3 |
| 15 | San Nicolás | 06-05-2026 03:30 | 13,6 | 94 | 0,3 | 2,2 | 8 | 0 | 1008,5 |
| 14 | San Nicolás | 06-05-2026 03:15 | 13,7 | 94 | 1,8 | 2,2 | 26 | 0 | 1008,6 |
| 13 | San Nicolás | 06-05-2026 03:00 | 13,8 | 93 | 3,3 | 3,6 | 26 | 0 | 1008,9 |
| 12 | San Nicolás | 06-05-2026 02:45 | 14 | 92 | 0,5 | 3,1 | 26 | 0 | 1009,1 |
| 11 | San Nicolás | 06-05-2026 02:30 | 14,2 | 91 | 1 | 2,7 | 1 | 0 | 1009 |
| 10 | San Nicolás | 06-05-2026 02:15 | 14,8 | 88 | 1,3 | 4,5 | 27 | 0 | 1008,7 |
| 9 | San Nicolás | 06-05-2026 02:00 | 15,4 | 84 | 0 | 3,6 | 42 | 0 | 1008,3 |
| 8 | San Nicolás | 06-05-2026 01:45 | 15,5 | 83 | 0 | 6,7 | 39 | 0 | 1008 |
| 7 | San Nicolás | 06-05-2026 01:30 | 15,4 | 84 | 0 | 7,2 | 17 | 0 | 1007,9 |
| 6 | San Nicolás | 06-05-2026 01:15 | 15,3 | 85 | 0 | 7,6 | 73 | 0 | 1007,9 |
| 5 | San Nicolás | 06-05-2026 01:00 | 15,3 | 85 | 0 | 7,6 | 65 | 0 | 1007,8 |
| 4 | San Nicolás | 06-05-2026 00:45 | 15,4 | 85 | 0 | 6,7 | 44 | 0 | 1008 |
| 3 | San Nicolás | 06-05-2026 00:30 | 15,1 | 86 | 0 | 5,4 | 81 | 0 | 1008 |
| 2 | San Nicolás | 06-05-2026 00:15 | 15,1 | 87 | 0 | 5,4 | 56 | 0 | 1008,3 |
| 1 | San Nicolás | 06-05-2026 00:00 | 15 | 86 | 0 | 4,5 | 44 | 0 | 1008,8 |